Time;durP1;ratioP1;P1;durP2;ratioP2;P2;SDS_P1;SDS_P2;PMS_P1;PMS_P2;Temp;Humidity;BMP_temperature;BMP_pressure;BME280_temperature;BME280_humidity;BME280_pressure;Samples;Min_cycle;Max_cycle;Signal;HPM_P1;HPM_P2
2023/03/15 00:01:33;;;;;;;1.75;0.50;;;;;;;4.07;92.51;101199.47;5034117;28;20357;-72
2023/03/15 00:03:58;;;;;;;0.32;0.20;;;;;;;4.07;92.73;101199.47;5034226;28;20044;-72
2023/03/15 00:06:24;;;;;;;0.75;0.40;;;;;;;4.08;92.77;101200.34;5032636;28;20048;-72
2023/03/15 00:08:50;;;;;;;0.30;0.28;;;;;;;4.09;92.85;101204.66;5033296;28;20045;-72
2023/03/15 00:11:17;;;;;;;1.10;0.40;;;;;;;4.10;92.73;101203.78;5033337;28;20242;-72
2023/03/15 00:13:43;;;;;;;1.08;0.50;;;;;;;4.10;92.62;101207.22;5033988;28;20124;-72
2023/03/15 00:16:09;;;;;;;0.52;0.28;;;;;;;4.06;91.91;101200.38;5034747;28;20232;-72
2023/03/15 00:18:35;;;;;;;1.10;0.70;;;;;;;4.06;91.98;101215.03;5033791;28;20041;-72
2023/03/15 00:21:00;;;;;;;1.40;0.30;;;;;;;4.01;91.65;101218.53;5035195;28;20051;-72
2023/03/15 00:23:26;;;;;;;0.75;0.35;;;;;;;4.00;91.78;101205.56;5036165;28;20033;-72
2023/03/15 00:25:52;;;;;;;0.52;0.40;;;;;;;4.01;91.97;101213.34;5035419;28;20399;-72
2023/03/15 00:28:18;;;;;;;2.13;0.50;;;;;;;3.97;90.97;101224.63;5035987;28;20099;-72
2023/03/15 00:30:43;;;;;;;1.17;0.50;;;;;;;3.89;90.39;101217.75;5036475;28;20050;-72
2023/03/15 00:33:12;;;;;;;0.82;0.40;;;;;;;3.88;90.87;101214.31;5036563;28;20021;-72
2023/03/15 00:35:40;;;;;;;1.02;0.40;;;;;;;3.91;91.21;101218.59;5035842;28;20037;-72
2023/03/15 00:38:06;;;;;;;0.63;0.20;;;;;;;3.92;91.36;101220.34;5036249;28;20032;-72
2023/03/15 00:40:31;;;;;;;1.95;0.32;;;;;;;3.94;91.33;101222.03;5036073;28;20045;-72
2023/03/15 00:42:57;;;;;;;2.05;0.32;;;;;;;3.96;91.41;101222.03;5018494;28;20265;-72
2023/03/15 00:45:23;;;;;;;0.40;0.20;;;;;;;3.98;91.37;101228.06;5035956;28;20072;-72
2023/03/15 00:47:50;;;;;;;0.80;0.40;;;;;;;3.96;91.29;101227.22;5036417;28;20375;-72
2023/03/15 00:50:15;;;;;;;0.35;0.20;;;;;;;3.96;91.08;101229.81;5035446;28;20041;-72
2023/03/15 00:52:41;;;;;;;0.57;0.30;;;;;;;3.98;91.37;101222.88;5035932;28;20119;-72
2023/03/15 00:55:13;;;;;;;3.22;0.95;;;;;;;3.99;91.34;101233.22;5036314;28;20033;-72
2023/03/15 00:57:43;;;;;;;0.98;0.40;;;;;;;3.99;91.18;101235.81;5035996;28;20493;-72
2023/03/15 01:00:13;;;;;;;0.50;0.25;;;;;;;3.99;91.12;101235.81;5036240;28;20057;-72
2023/03/15 01:02:38;;;;;;;0.30;0.20;;;;;;;4.01;91.21;101239.25;5035790;28;20041;-72
2023/03/15 01:05:06;;;;;;;0.57;0.30;;;;;;;4.03;91.32;101244.44;5036015;28;20032;-72
2023/03/15 01:07:34;;;;;;;0.32;0.20;;;;;;;4.03;91.37;101247.88;5035260;28;20293;-72
2023/03/15 01:10:01;;;;;;;2.60;0.43;;;;;;;4.05;91.63;101242.69;5036261;28;20044;-72
2023/03/15 01:12:34;;;;;;;0.20;0.20;;;;;;;4.04;91.19;101248.75;5035505;28;20041;-72
2023/03/15 01:15:00;;;;;;;0.30;0.30;;;;;;;4.06;91.50;101246.13;5036129;28;20332;-72
2023/03/15 01:17:26;;;;;;;1.13;0.20;;;;;;;4.07;91.88;101259.09;5033270;28;20037;-72
2023/03/15 01:19:52;;;;;;;0.68;0.30;;;;;;;4.09;91.59;101262.53;5036400;28;20390;-72
2023/03/15 01:22:18;;;;;;;1.60;0.50;;;;;;;4.10;91.64;101263.41;5017716;28;20042;-72
2023/03/15 01:24:43;;;;;;;0.73;0.20;;;;;;;4.10;91.71;101268.59;5036028;28;20130;-72
2023/03/15 01:27:09;;;;;;;0.10;0.10;;;;;;;4.09;91.77;101266.84;5036044;28;20041;-72
2023/03/15 01:29:34;;;;;;;0.30;0.30;;;;;;;4.08;91.88;101266.00;5037857;28;20029;-72
2023/03/15 01:32:00;;;;;;;2.50;0.40;;;;;;;4.08;91.81;101273.78;5039908;28;20056;-72
2023/03/15 01:34:25;;;;;;;0.10;0.10;;;;;;;4.08;91.95;101268.59;5039264;28;20121;-72
2023/03/15 01:36:52;;;;;;;0.25;0.25;;;;;;;4.08;91.89;101276.38;5039886;28;20041;-72
2023/03/15 01:39:17;;;;;;;0.73;0.20;;;;;;;4.06;92.03;101283.31;5038779;28;20065;-72
2023/03/15 01:41:42;;;;;;;0.30;0.20;;;;;;;4.07;91.99;101286.75;5021896;28;20045;-72
2023/03/15 01:44:13;;;;;;;0.75;0.40;;;;;;;4.07;91.89;101292.78;5037510;28;20037;-72
2023/03/15 01:46:40;;;;;;;0.32;0.20;;;;;;;4.04;91.88;101301.44;5039249;28;20044;-72
2023/03/15 01:49:40;;;;;;;0.60;0.47;;;;;;;4.03;91.95;101302.31;5039503;28;21102;-72
2023/03/15 01:52:11;;;;;;;1.17;0.22;;;;;;;4.02;92.09;101304.91;4942506;29;20111;-72
2023/03/15 01:54:58;;;;;;;0.20;0.15;;;;;;;4.01;91.86;101310.97;5015890;28;20112;-72
2023/03/15 01:57:43;;;;;;;0.47;0.20;;;;;;;4.01;91.97;101313.56;5038788;28;20068;-72
2023/03/15 02:00:15;;;;;;;0.10;0.10;;;;;;;3.99;91.79;101316.16;5039516;28;20119;-72
2023/03/15 02:02:56;;;;;;;0.30;0.30;;;;;;;3.98;91.68;101317.06;5039446;28;20049;-72
2023/03/15 02:05:34;;;;;;;0.90;0.20;;;;;;;3.98;91.68;101319.66;5038527;28;20100;-72
2023/03/15 02:08:01;;;;;;;0.35;0.20;;;;;;;3.96;91.71;101321.34;5038805;28;20424;-72
2023/03/15 02:10:34;;;;;;;0.95;0.30;;;;;;;3.94;91.79;101320.50;5038371;28;20044;-72
2023/03/15 02:13:01;;;;;;;0.20;0.20;;;;;;;3.95;91.76;101321.41;5039107;28;20124;-72
2023/03/15 02:15:27;;;;;;;0.10;0.10;;;;;;;3.92;91.80;101317.06;5038259;28;20132;-72
2023/03/15 02:17:52;;;;;;;1.05;0.20;;;;;;;3.90;91.61;101330.91;5038671;28;20341;-72
2023/03/15 02:20:33;;;;;;;0.32;0.30;;;;;;;3.89;91.52;101332.63;5038363;28;20096;-72
2023/03/15 02:23:02;;;;;;;0.40;0.30;;;;;;;3.88;91.54;101338.69;5036603;28;20033;-72
2023/03/15 02:25:50;;;;;;;;;;;;;;;3.86;91.51;101327.47;5038745;28;20037;-72
2023/03/15 02:28:18;;;;;;;0.20;0.20;;;;;;;3.85;91.55;101343.88;5030371;28;20232;-72
2023/03/15 02:30:44;;;;;;;0.10;0.10;;;;;;;3.83;91.31;101349.06;5038684;28;20096;-72
2023/03/15 02:33:33;;;;;;;0.22;0.17;;;;;;;3.81;91.28;101344.78;5038656;28;20048;-72
2023/03/15 02:36:18;;;;;;;0.10;0.10;;;;;;;3.79;91.25;101349.97;5037942;28;20049;-72
2023/03/15 02:38:43;;;;;;;0.30;0.20;;;;;;;3.78;91.11;101347.38;5038340;28;20280;-72
2023/03/15 02:41:10;;;;;;;0.52;0.35;;;;;;;3.76;91.17;101346.53;5037138;28;20044;-72
2023/03/15 02:43:38;;;;;;;0.43;0.20;;;;;;;3.75;91.12;101347.41;5037929;28;20313;-72
2023/03/15 02:46:04;;;;;;;0.20;0.20;;;;;;;3.73;91.07;101350.00;5038150;28;20040;-72
2023/03/15 02:48:32;;;;;;;0.20;0.20;;;;;;;3.71;91.09;101349.16;5037956;28;20033;-72
2023/03/15 02:50:57;;;;;;;0.30;0.30;;;;;;;3.71;91.14;101361.22;5038076;28;20084;-72
2023/03/15 02:53:23;;;;;;;0.17;0.10;;;;;;;3.67;91.01;101364.69;5037289;28;20096;-72
2023/03/15 02:55:48;;;;;;;0.65;0.32;;;;;;;3.67;90.87;101367.28;5037914;28;20037;-72
2023/03/15 02:58:13;;;;;;;0.38;0.30;;;;;;;3.63;90.80;101377.66;5038031;28;20037;-72
2023/03/15 03:00:39;;;;;;;0.20;0.20;;;;;;;3.60;90.59;101390.63;5037414;28;20099;-72
2023/03/15 03:03:04;;;;;;;0.30;0.20;;;;;;;3.59;90.60;101395.81;5037824;28;20041;-72
2023/03/15 03:05:30;;;;;;;0.20;0.20;;;;;;;3.57;90.67;101406.16;5034484;28;20055;-72
2023/03/15 03:07:55;;;;;;;0.20;0.20;;;;;;;3.56;90.76;101408.75;5037933;28;20124;-72
2023/03/15 03:10:21;;;;;;;0.82;0.25;;;;;;;3.54;90.84;101402.72;5037316;28;20055;-72
2023/03/15 03:12:46;;;;;;;0.93;0.40;;;;;;;3.53;90.79;101409.63;5037398;28;20245;-72
2023/03/15 03:15:12;;;;;;;0.22;0.22;;;;;;;3.51;90.75;101411.38;5038124;28;20232;-72
2023/03/15 03:17:38;;;;;;;0.30;0.30;;;;;;;3.50;90.66;101420.00;5037144;28;20084;-72
2023/03/15 03:20:08;;;;;;;0.63;0.47;;;;;;;3.49;90.77;101418.25;5037648;28;20027;-72
2023/03/15 03:22:35;;;;;;;0.85;0.70;;;;;;;3.48;90.74;101426.06;5037115;28;20236;-72
2023/03/15 03:25:01;;;;;;;0.43;0.30;;;;;;;3.46;90.58;101431.22;5037563;28;20242;-72
2023/03/15 03:27:26;;;;;;;3.83;1.15;;;;;;;3.43;90.36;101449.34;5037079;28;20095;-72
2023/03/15 03:29:52;;;;;;;2.22;0.75;;;;;;;3.29;89.83;101453.69;5037349;28;20042;-72
2023/03/15 03:32:17;;;;;;;1.02;0.47;;;;;;;3.18;90.17;101462.31;5037067;28;20116;-72
2023/03/15 03:34:47;;;;;;;0.57;0.38;;;;;;;3.12;90.40;101456.28;5037212;28;20040;-72
2023/03/15 03:37:16;;;;;;;3.28;0.73;;;;;;;3.05;90.69;101458.00;5037911;28;20042;-72
2023/03/15 03:39:41;;;;;;;;;;;;;;;2.99;90.95;101469.22;5037747;28;20045;-72
2023/03/15 03:42:07;;;;;;;1.77;0.43;;;;;;;2.97;91.18;101460.59;5020076;28;19921;-71
2023/03/15 03:44:32;;;;;;;3.70;0.40;;;;;;;2.97;91.58;101452.81;5036966;28;20056;-71
2023/03/15 03:46:57;;;;;;;0.28;0.20;;;;;;;2.99;91.67;101456.28;5038110;28;20052;-71
2023/03/15 03:49:23;;;;;;;0.38;0.30;;;;;;;3.03;91.83;101464.91;5037090;28;20041;-71
2023/03/15 03:51:48;;;;;;;0.20;0.20;;;;;;;3.08;92.15;101458.00;5037229;28;20100;-73
2023/03/15 03:54:14;;;;;;;0.60;0.30;;;;;;;3.13;92.31;101452.81;5037023;28;20213;-74
2023/03/15 03:56:39;;;;;;;1.58;0.35;;;;;;;3.19;92.51;101450.25;5036878;28;20045;-74
2023/03/15 03:59:04;;;;;;;0.38;0.20;;;;;;;3.23;92.56;101460.59;5037268;28;20371;-74
2023/03/15 04:01:30;;;;;;;0.20;0.15;;;;;;;3.28;92.71;101470.09;5036557;28;20362;-74
2023/03/15 04:03:55;;;;;;;0.98;0.30;;;;;;;3.29;92.80;101467.47;5037091;28;20352;-74
2023/03/15 04:06:21;;;;;;;0.30;0.20;;;;;;;3.31;92.89;101473.53;5036405;28;20045;-74
2023/03/15 04:08:47;;;;;;;1.25;0.52;;;;;;;3.34;93.05;101478.69;5036544;28;20033;-74
2023/03/15 04:11:16;;;;;;;0.30;0.28;;;;;;;3.37;93.16;101483.03;5037013;28;20049;-74
2023/03/15 04:13:43;;;;;;;1.08;0.30;;;;;;;3.37;93.25;101481.31;5036765;28;20037;-74
2023/03/15 04:16:08;;;;;;;0.40;0.30;;;;;;;3.38;93.29;101483.00;5036950;28;20390;-74
2023/03/15 04:18:34;;;;;;;0.30;0.30;;;;;;;3.39;93.34;101491.66;5036344;28;20108;-74
2023/03/15 04:20:59;;;;;;;0.20;0.20;;;;;;;3.40;93.44;101499.44;5036829;28;20041;-74
2023/03/15 04:23:24;;;;;;;0.20;0.20;;;;;;;3.41;93.56;101495.09;5036052;28;20029;-74
2023/03/15 04:25:53;;;;;;;0.63;0.20;;;;;;;3.41;93.50;101500.28;5036754;28;20060;-74
2023/03/15 04:28:19;;;;;;;2.10;0.40;;;;;;;3.42;93.55;101502.00;5036201;28;20233;-74
2023/03/15 04:30:47;;;;;;;0.10;0.10;;;;;;;3.41;93.66;101514.09;5036805;28;20041;-74
2023/03/15 04:33:13;;;;;;;1.60;0.20;;;;;;;3.41;93.57;101508.06;5036835;28;20033;-74
2023/03/15 04:35:38;;;;;;;0.22;0.10;;;;;;;3.41;93.66;101508.06;5036352;28;20100;-74
2023/03/15 04:38:04;;;;;;;0.22;0.20;;;;;;;3.40;94.02;101511.50;5036744;28;20040;-74
2023/03/15 04:40:33;;;;;;;0.35;0.30;;;;;;;3.39;93.63;101517.56;5035950;28;20038;-74
2023/03/15 04:43:01;;;;;;;0.43;0.20;;;;;;;3.38;93.62;101529.63;5036739;28;20041;-74
2023/03/15 04:45:27;;;;;;;0.20;0.20;;;;;;;3.38;93.75;101531.34;5036351;28;20018;-74
2023/03/15 04:47:54;;;;;;;1.00;0.25;;;;;;;3.39;93.60;101535.69;5036918;28;20049;-74
2023/03/15 04:50:21;;;;;;;0.40;0.30;;;;;;;3.38;93.54;101542.56;5035899;28;20041;-74
2023/03/15 04:52:47;;;;;;;0.47;0.40;;;;;;;3.37;93.46;101543.44;5036104;28;20040;-74
2023/03/15 04:55:13;;;;;;;0.82;0.40;;;;;;;3.38;93.66;101539.97;5036359;28;20040;-74
2023/03/15 04:57:39;;;;;;;0.40;0.35;;;;;;;3.39;93.69;101546.03;5036075;28;20033;-74
2023/03/15 05:00:06;;;;;;;0.82;0.25;;;;;;;3.38;93.70;101545.16;5036269;28;20026;-74
2023/03/15 05:02:33;;;;;;;0.68;0.30;;;;;;;3.37;93.83;101540.84;5033739;28;20025;-74
2023/03/15 05:04:58;;;;;;;1.63;0.40;;;;;;;3.38;93.96;101537.38;5039440;28;20037;-74
2023/03/15 05:07:24;;;;;;;0.40;0.30;;;;;;;3.38;93.93;101536.53;5039402;28;20052;-74
2023/03/15 05:09:49;;;;;;;0.40;0.40;;;;;;;3.39;93.95;101540.84;5040118;28;20041;-74
2023/03/15 05:12:15;;;;;;;0.55;0.30;;;;;;;3.38;94.07;101545.16;5039878;28;20333;-74
2023/03/15 05:14:40;;;;;;;0.50;0.20;;;;;;;3.37;94.03;101556.38;5039758;28;20071;-74
2023/03/15 05:17:06;;;;;;;0.30;0.30;;;;;;;3.35;93.91;101560.72;5039868;28;20047;-74
2023/03/15 05:19:34;;;;;;;0.38;0.38;;;;;;;3.35;93.99;101572.81;5039712;28;20045;-74
2023/03/15 05:22:01;;;;;;;0.40;0.40;;;;;;;3.32;94.08;101567.59;5039897;28;20041;-74
2023/03/15 05:24:26;;;;;;;0.20;0.20;;;;;;;3.31;93.93;101563.28;5039349;28;20041;-74
2023/03/15 05:26:53;;;;;;;0.28;0.20;;;;;;;3.29;93.81;101562.41;5039961;28;20068;-74
2023/03/15 05:29:20;;;;;;;0.40;0.40;;;;;;;3.26;93.82;101574.50;5039391;28;20029;-74
2023/03/15 05:31:45;;;;;;;0.70;0.40;;;;;;;3.25;93.76;101574.50;5039871;28;20292;-74
2023/03/15 05:34:11;;;;;;;0.55;0.30;;;;;;;3.24;93.73;101577.97;5039540;28;20043;-74
2023/03/15 05:36:36;;;;;;;0.40;0.30;;;;;;;3.22;93.76;101580.53;5038911;28;20348;-74
2023/03/15 05:39:02;;;;;;;0.43;0.30;;;;;;;3.22;93.84;101577.06;5039486;28;20053;-74
2023/03/15 05:41:27;;;;;;;0.95;0.50;;;;;;;3.21;93.90;101581.38;5039267;28;20041;-74
2023/03/15 05:43:53;;;;;;;1.00;0.60;;;;;;;3.20;93.68;101594.31;5039787;28;20071;-74
2023/03/15 05:46:19;;;;;;;0.95;0.60;;;;;;;3.18;93.82;101589.13;5038900;28;20048;-74
2023/03/15 05:48:44;;;;;;;0.30;0.30;;;;;;;3.16;93.76;101590.88;5037141;28;20336;-74
2023/03/15 05:51:10;;;;;;;0.45;0.40;;;;;;;3.14;93.49;101600.34;5039362;28;20084;-74
2023/03/15 05:53:35;;;;;;;0.63;0.40;;;;;;;3.12;93.41;101601.22;5038386;28;20105;-74
2023/03/15 05:56:01;;;;;;;0.90;0.40;;;;;;;3.11;93.42;101615.00;5039240;28;20120;-74
2023/03/15 05:58:26;;;;;;;0.70;0.40;;;;;;;3.09;93.18;101617.59;5038776;28;20065;-74
2023/03/15 06:00:51;;;;;;;0.40;0.40;;;;;;;3.06;93.17;101620.19;5039182;28;20048;-74
2023/03/15 06:03:17;;;;;;;1.63;0.57;;;;;;;3.04;93.21;101633.13;5038795;28;20029;-74
2023/03/15 06:05:43;;;;;;;0.85;0.40;;;;;;;3.04;93.18;101632.28;5039708;28;20579;-74
2023/03/15 06:08:09;;;;;;;0.70;0.40;;;;;;;3.01;93.25;101638.28;5039075;28;20079;-74
2023/03/15 06:10:34;;;;;;;0.40;0.30;;;;;;;3.00;93.07;101646.91;5038500;28;20037;-74
2023/03/15 06:13:00;;;;;;;1.98;0.52;;;;;;;3.00;93.15;101659.88;5039099;28;20064;-74
2023/03/15 06:15:25;;;;;;;0.40;0.40;;;;;;;2.98;93.06;101655.53;5038216;28;20037;-74
2023/03/15 06:17:51;;;;;;;3.55;0.60;;;;;;;2.97;93.15;101659.84;5038908;28;20049;-74
2023/03/15 06:20:18;;;;;;;1.33;0.57;;;;;;;2.97;93.23;101656.41;5038485;28;20275;-74
2023/03/15 06:22:43;;;;;;;1.88;0.80;;;;;;;2.97;93.48;101661.56;5038594;28;20037;-74
2023/03/15 06:25:09;;;;;;;1.15;0.70;;;;;;;2.95;93.22;101666.75;5038383;28;20353;-74
2023/03/15 06:27:36;;;;;;;1.75;0.95;;;;;;;2.94;92.95;101667.56;5035876;28;20112;-74
2023/03/15 06:30:02;;;;;;;1.30;0.50;;;;;;;2.94;93.11;101677.06;5038744;28;20165;-74
2023/03/15 06:32:27;;;;;;;0.93;0.50;;;;;;;2.93;93.12;101678.81;5037852;28;20059;-74
2023/03/15 06:34:53;;;;;;;0.52;0.52;;;;;;;2.92;93.14;101682.25;5039166;28;20073;-74
2023/03/15 06:37:18;;;;;;;1.30;0.45;;;;;;;2.90;93.08;101683.97;5037788;28;20408;-74
2023/03/15 06:39:43;;;;;;;0.57;0.57;;;;;;;2.92;93.17;101694.31;5038254;28;20033;-74
2023/03/15 06:42:12;;;;;;;1.98;1.08;;;;;;;2.90;93.27;101698.63;5038524;28;20033;-74
2023/03/15 06:44:40;;;;;;;0.77;0.77;;;;;;;2.92;93.49;101692.59;5037949;28;20096;-74
2023/03/15 06:47:07;;;;;;;0.98;0.70;;;;;;;2.93;93.45;101712.44;5038319;28;20049;-74
2023/03/15 06:49:32;;;;;;;0.70;0.65;;;;;;;2.94;93.56;101708.97;5037954;28;20041;-74
2023/03/15 06:51:58;;;;;;;0.70;0.70;;;;;;;2.94;93.71;101706.41;5038308;28;20037;-74
2023/03/15 06:54:23;;;;;;;0.65;0.52;;;;;;;2.95;93.59;101717.59;5036548;28;20328;-74
2023/03/15 06:56:49;;;;;;;0.82;0.80;;;;;;;2.94;93.63;101713.31;5039329;28;20240;-74
2023/03/15 06:59:15;;;;;;;0.57;0.57;;;;;;;2.94;94.13;101718.47;5038174;28;20060;-74
2023/03/15 07:01:40;;;;;;;1.27;0.77;;;;;;;2.95;93.87;101715.91;5037712;28;20037;-74
2023/03/15 07:04:06;;;;;;;0.60;0.60;;;;;;;2.95;94.11;101715.00;5037942;28;20447;-74
2023/03/15 07:06:32;;;;;;;2.10;1.17;;;;;;;2.95;94.06;101731.44;5036202;28;20085;-74
2023/03/15 07:08:58;;;;;;;0.85;0.60;;;;;;;2.95;94.22;101734.00;5044198;28;20276;-74
2023/03/15 07:11:23;;;;;;;0.75;0.75;;;;;;;2.95;94.28;101734.00;5037451;28;20029;-74
2023/03/15 07:13:49;;;;;;;1.75;0.60;;;;;;;2.97;94.34;101734.88;5037898;28;20045;-74
2023/03/15 07:16:14;;;;;;;2.65;1.17;;;;;;;2.98;94.34;101741.78;5037584;28;20292;-74
2023/03/15 07:18:40;;;;;;;1.48;0.70;;;;;;;2.99;94.50;101740.06;5036855;28;20045;-74
2023/03/15 07:21:07;;;;;;;1.40;0.77;;;;;;;3.00;94.65;101739.19;5036570;28;20368;-74
2023/03/15 07:23:32;;;;;;;1.08;0.90;;;;;;;3.02;94.70;101753.00;5036907;28;20041;-74
2023/03/15 07:25:58;;;;;;;1.15;0.80;;;;;;;3.03;94.84;101755.59;5037219;28;20048;-73
2023/03/15 07:28:24;;;;;;;2.88;1.00;;;;;;;3.05;94.86;101765.97;5037117;28;20044;-73
2023/03/15 07:30:57;;;;;;;1.33;0.80;;;;;;;3.05;95.00;101768.56;5036366;28;20045;-73
2023/03/15 07:33:23;;;;;;;1.13;0.90;;;;;;;3.05;95.24;101764.25;5035312;28;20263;-73
2023/03/15 07:35:50;;;;;;;1.40;0.88;;;;;;;3.07;95.13;101764.25;5036937;28;20033;-74
2023/03/15 07:38:16;;;;;;;1.17;0.82;;;;;;;3.07;95.31;101766.84;5036390;28;20112;-74
2023/03/15 07:40:41;;;;;;;1.88;0.88;;;;;;;3.08;95.40;101768.59;5034543;28;20083;-74
2023/03/15 07:43:07;;;;;;;1.77;1.00;;;;;;;3.11;95.52;101765.13;5037164;28;20034;-74
2023/03/15 07:45:33;;;;;;;0.95;0.80;;;;;;;3.11;95.70;101776.38;5036090;28;20075;-74
2023/03/15 07:47:59;;;;;;;1.10;0.95;;;;;;;3.13;95.70;101777.25;5037716;28;20325;-74
2023/03/15 07:50:25;;;;;;;3.60;0.98;;;;;;;3.15;95.79;101783.28;5037324;28;20119;-74
2023/03/15 07:52:51;;;;;;;1.00;0.90;;;;;;;3.16;95.87;101786.75;5037716;28;20041;-74
2023/03/15 07:55:16;;;;;;;2.15;0.80;;;;;;;3.17;95.88;101794.50;5037234;28;20037;-74
2023/03/15 07:57:41;;;;;;;1.30;0.90;;;;;;;3.20;96.04;101796.25;5035705;28;20423;-74
2023/03/15 08:00:08;;;;;;;0.85;0.80;;;;;;;3.20;96.17;101796.25;5025936;28;20041;-74
2023/03/15 08:02:33;;;;;;;1.85;0.80;;;;;;;3.22;96.27;101794.53;5036327;28;20044;-74
2023/03/15 08:04:58;;;;;;;1.33;0.80;;;;;;;3.24;96.45;101803.19;5054377;28;20048;-74
2023/03/15 08:07:24;;;;;;;0.70;0.70;;;;;;;3.25;96.55;101808.34;5056359;28;20052;-74
2023/03/15 08:09:49;;;;;;;0.70;0.70;;;;;;;3.27;96.53;101810.94;5072446;28;20398;-74
2023/03/15 08:12:15;;;;;;;2.88;0.80;;;;;;;3.29;96.66;101810.97;5056946;28;20244;-74
2023/03/15 08:14:40;;;;;;;5.32;1.88;;;;;;;3.28;96.35;101827.38;5038726;28;20064;-74
2023/03/15 08:17:06;;;;;;;6.95;1.30;;;;;;;3.21;95.43;101822.16;5047233;28;20087;-74
2023/03/15 08:19:31;;;;;;;9.35;1.70;;;;;;;3.17;95.47;101825.56;5038922;28;20492;-74
2023/03/15 08:21:57;;;;;;;5.85;1.65;;;;;;;3.17;95.63;101833.34;5035132;28;20037;-74
2023/03/15 08:24:22;;;;;;;7.45;1.70;;;;;;;3.10;94.81;101833.31;5029160;28;20072;-74
2023/03/15 08:26:47;;;;;;;6.35;1.38;;;;;;;3.11;94.75;101827.25;5032124;28;20044;-74
2023/03/15 08:29:14;;;;;;;3.70;1.40;;;;;;;3.13;95.05;101831.59;5035562;28;20240;-74
2023/03/15 08:31:40;;;;;;;3.45;1.13;;;;;;;3.18;95.39;101835.06;5032956;28;20043;-74
2023/03/15 08:34:05;;;;;;;0.70;0.70;;;;;;;3.24;95.55;101836.84;5036867;28;20445;-74
2023/03/15 08:36:31;;;;;;;1.35;0.82;;;;;;;3.29;95.77;101836.84;5035953;28;20065;-74
2023/03/15 08:38:57;;;;;;;1.05;0.80;;;;;;;3.31;95.90;101838.63;5036779;28;20048;-74
2023/03/15 08:41:22;;;;;;;1.98;1.08;;;;;;;3.36;96.02;101831.72;5038620;28;20112;-74
2023/03/15 08:43:47;;;;;;;2.25;1.30;;;;;;;3.40;96.06;101838.66;5039681;28;20073;-74
2023/03/15 08:46:13;;;;;;;2.08;0.82;;;;;;;3.43;96.37;101835.22;5043753;28;20364;-74
2023/03/15 08:48:38;;;;;;;4.45;1.13;;;;;;;3.43;96.33;101836.06;5037758;28;20367;-74
2023/03/15 08:51:05;;;;;;;1.10;0.68;;;;;;;3.46;96.35;101837.81;5034854;28;20037;-74
2023/03/15 08:53:31;;;;;;;1.88;1.15;;;;;;;3.48;96.53;101843.00;5038895;28;20068;-74
2023/03/15 08:55:57;;;;;;;1.25;0.88;;;;;;;3.50;96.58;101839.56;5034601;28;20034;-74
2023/03/15 08:58:23;;;;;;;1.27;1.00;;;;;;;3.52;96.72;101842.16;5035875;28;20092;-74
2023/03/15 09:00:50;;;;;;;2.13;0.70;;;;;;;3.54;96.72;101836.13;5048413;28;20048;-74
2023/03/15 09:03:16;;;;;;;6.15;1.20;;;;;;;3.51;93.57;101846.47;5039345;28;20021;-74
2023/03/15 09:05:41;;;;;;;2.75;1.08;;;;;;;3.45;89.10;101836.06;5040285;28;20365;-74
2023/03/15 09:08:07;;;;;;;6.72;1.08;;;;;;;3.48;90.01;101838.69;5052489;28;20060;-74
2023/03/15 09:10:33;;;;;;;4.15;1.10;;;;;;;3.52;90.86;101843.00;5058022;28;20404;-74
2023/03/15 09:12:59;;;;;;;3.13;0.93;;;;;;;3.55;91.54;101831.81;5058350;28;20045;-74
2023/03/15 09:15:24;;;;;;;3.45;0.90;;;;;;;3.59;91.85;101829.22;5057702;28;20032;-74
2023/03/15 09:17:50;;;;;;;10.18;1.73;;;;;;;3.59;91.86;101826.66;5057054;28;20091;-74
2023/03/15 09:20:17;;;;;;;6.55;1.70;;;;;;;3.60;91.01;101830.97;5055522;28;20044;-74
2023/03/15 09:22:49;;;;;;;4.53;1.08;;;;;;;3.62;91.45;101826.66;5054980;28;20057;-74
2023/03/15 09:25:15;;;;;;;6.80;1.42;;;;;;;3.66;91.90;101830.13;5055970;28;20040;-74
2023/03/15 09:27:40;;;;;;;3.00;0.90;;;;;;;3.67;92.05;101829.25;5056226;28;20060;-74
2023/03/15 09:30:06;;;;;;;1.80;0.80;;;;;;;3.70;92.32;101829.28;5056814;28;20042;-74
2023/03/15 09:32:35;;;;;;;1.23;0.90;;;;;;;3.74;92.51;101837.94;5057689;28;20048;-74
2023/03/15 09:35:04;;;;;;;;;;;;;;;3.77;92.80;101835.34;5059942;28;20040;-74
2023/03/15 09:37:29;;;;;;;4.47;0.98;;;;;;;3.79;93.07;101836.22;5058738;28;19940;-74
2023/03/15 09:39:55;;;;;;;4.70;0.80;;;;;;;3.76;92.48;101842.25;5058818;28;20064;-74
2023/03/15 09:42:29;;;;;;;3.35;1.20;;;;;;;3.77;91.61;101845.72;5058331;28;20056;-74
2023/03/15 09:45:21;;;;;;;1.92;0.98;;;;;;;3.79;92.13;101837.09;5059467;28;20044;-74
2023/03/15 09:47:56;;;;;;;1.65;0.80;;;;;;;3.83;92.43;101844.00;5059294;28;20029;-74
2023/03/15 09:50:44;;;;;;;0.93;0.70;;;;;;;3.86;92.88;101832.78;5058735;28;20067;-74
2023/03/15 09:53:38;;;;;;;1.13;0.60;;;;;;;3.89;93.16;101830.19;5059569;28;20029;-73
2023/03/15 09:56:19;;;;;;;0.57;0.55;;;;;;;3.90;93.56;101829.34;5046427;28;20044;-73
2023/03/15 09:58:46;;;;;;;2.60;0.70;;;;;;;3.94;93.80;101845.75;5059651;28;20309;-73
2023/03/15 10:01:13;;;;;;;4.05;1.02;;;;;;;3.95;94.16;101845.78;5059768;28;20049;-74
2023/03/15 10:03:47;;;;;;;1.50;0.65;;;;;;;3.97;94.29;101845.78;5058701;28;20099;-73
2023/03/15 10:06:29;;;;;;;0.55;0.43;;;;;;;3.99;94.66;101844.06;5059721;28;20281;-73
2023/03/15 10:08:59;;;;;;;1.00;0.50;;;;;;;4.02;94.81;101841.44;5059261;28;20266;-73
2023/03/15 10:11:55;;;;;;;3.88;1.00;;;;;;;4.01;94.43;101845.78;5058975;28;20017;-73
2023/03/15 10:14:46;;;;;;;2.60;0.75;;;;;;;4.00;91.76;101850.97;5054890;28;20057;-73
2023/03/15 10:17:14;;;;;;;8.98;1.73;;;;;;;3.99;85.92;101850.09;5058751;28;20348;-74
2023/03/15 10:19:51;;;;;;;5.70;1.30;;;;;;;4.03;84.29;101862.19;5058239;28;20044;-74
2023/03/15 10:22:41;;;;;;;6.50;1.33;;;;;;;4.06;83.27;101870.84;5057302;28;20020;-74
2023/03/15 10:25:23;;;;;;;3.95;1.60;;;;;;;4.08;84.00;101870.00;5057117;28;20086;-73
2023/03/15 10:27:55;;;;;;;6.55;1.77;;;;;;;4.11;84.79;101874.31;5057061;28;20086;-73
2023/03/15 10:30:23;;;;;;;2.90;1.48;;;;;;;4.14;84.83;101877.78;5058079;28;20364;-73
2023/03/15 10:32:58;;;;;;;5.63;1.83;;;;;;;4.17;86.12;101874.34;5056689;28;20044;-73
2023/03/15 10:35:24;;;;;;;2.83;1.52;;;;;;;4.22;85.99;101877.78;5059895;28;20033;-73
2023/03/15 10:37:49;;;;;;;7.28;1.83;;;;;;;4.28;86.49;101877.84;5062689;28;20079;-74
2023/03/15 10:40:35;;;;;;;4.97;1.92;;;;;;;4.33;86.71;101886.50;5058479;28;20227;-74
2023/03/15 10:43:00;;;;;;;8.98;1.70;;;;;;;4.36;86.59;101886.47;5056392;28;20236;-74
2023/03/15 10:45:27;;;;;;;3.55;1.35;;;;;;;4.40;86.62;101895.13;5057058;28;20094;-74
2023/03/15 10:47:53;;;;;;;6.00;1.67;;;;;;;4.41;85.92;101894.28;5058631;28;20040;-74
2023/03/15 10:50:28;;;;;;;5.82;1.50;;;;;;;4.43;83.65;101898.59;5058073;28;20104;-74
2023/03/15 10:52:57;;;;;;;4.03;1.25;;;;;;;4.48;84.91;101896.03;5058466;28;20286;-74
2023/03/15 10:55:35;;;;;;;6.27;1.50;;;;;;;4.54;85.83;101906.41;5057240;28;20040;-74
2023/03/15 10:58:26;;;;;;;6.22;1.55;;;;;;;4.58;86.39;101902.06;5055875;28;20021;-74
2023/03/15 11:01:08;;;;;;;4.10;1.77;;;;;;;4.64;86.95;101917.66;5060522;28;20044;-74
2023/03/15 11:03:35;;;;;;;4.00;1.30;;;;;;;4.65;86.33;101909.00;5058021;28;20092;-74
2023/03/15 11:06:03;;;;;;;2.08;1.10;;;;;;;4.63;80.42;101915.06;5058345;28;20097;-74
2023/03/15 11:08:41;;;;;;;14.25;2.05;;;;;;;4.67;82.49;101921.97;5053475;28;20053;-74
2023/03/15 11:11:07;;;;;;;2.72;1.20;;;;;;;4.71;83.01;101918.53;5057389;28;20035;-74
2023/03/15 11:13:38;;;;;;;2.75;0.77;;;;;;;4.72;82.02;101923.72;5058759;28;20072;-74
2023/03/15 11:16:06;;;;;;;3.28;1.00;;;;;;;4.76;80.26;101922.00;5057441;28;20326;-74
2023/03/15 11:18:53;;;;;;;4.28;1.48;;;;;;;4.79;81.69;101916.81;5056733;28;20222;-74
2023/03/15 11:21:22;;;;;;;4.93;0.98;;;;;;;4.83;82.71;101915.94;5056721;28;20040;-74
2023/03/15 11:23:49;;;;;;;8.13;1.10;;;;;;;4.86;82.44;101912.47;5057480;28;20027;-74
2023/03/15 11:26:25;;;;;;;4.90;1.08;;;;;;;4.87;80.45;101909.88;5057501;28;20075;-74
2023/03/15 11:28:54;;;;;;;3.35;0.90;;;;;;;4.91;81.35;101918.53;5039460;28;20043;-74
2023/03/15 11:31:23;;;;;;;1.20;0.80;;;;;;;4.93;81.38;101915.09;5056357;28;20320;-74
2023/03/15 11:34:05;;;;;;;6.10;1.08;;;;;;;4.96;81.66;101919.41;5056402;28;20100;-74
2023/03/15 11:36:35;;;;;;;1.33;0.75;;;;;;;4.98;81.47;101913.38;5056254;28;20048;-74
2023/03/15 11:39:03;;;;;;;3.20;0.65;;;;;;;5.02;81.92;101909.03;5058118;28;20067;-74